Terminal Aerodrome Forecast
Issued by NWS Atlanta, GA

Home | Current Version | Previous Version | Text Only | Print | Product List | Glossary On
Versions: 1 2 3 4 5 6 7 8 9 10 11 12 13 14
401
FTUS42 KFFC 171734
TAFMCN
TAF
KMCN 171734Z 1718/1818 14005KT P6SM SCT035 BKN100
     FM172100 12005KT P6SM VCSH BKN030 OVC050
      TEMPO 1721/1724 6SM -SHRA BKN025
     FM180000 13003KT P6SM VCSH OVC040
     FM180600 03002KT 2SM -DZ BR OVC007
     FM181500 02002KT P6SM VCSH OVC008=

USA.gov is the U.S. government's official web portal to all federal, state and local government web resources and services.